Time,TemperatureF,DewpointF,PressureIn,WindDirection,WindDirectionDegrees,WindSpeedMPH,WindSpeedGustMPH,Humidity,HourlyPrecipIn,Conditions,Clouds,dailyrainin,SolarRadiationWatts/m^2,SoftwareType,DateUTC
2013-04-24 00:02:00,40.0,21.0,-100.00,South,176,0.0,0.0,46,0.00,,,0.00,0.000000,,2013-04-24 07:02:00,
2013-04-24 00:11:00,40.0,21.0,-100.00,South,176,0.0,0.0,46,0.00,,,0.00,0.000000,,2013-04-24 07:11:00,
2013-04-24 00:21:00,40.0,21.0,-100.00,South,176,0.0,0.0,46,0.00,,,0.00,0.000000,,2013-04-24 07:21:00,
2013-04-24 00:31:00,40.0,21.0,-100.00,South,176,0.0,0.0,46,0.00,,,0.00,0.000000,,2013-04-24 07:31:00,
2013-04-24 01:01:00,39.0,20.0,-100.00,SE,141,0.0,5.0,46,0.00,,,0.00,0.000000,,2013-04-24 08:01:00,
2013-04-24 01:11:00,39.0,20.0,-100.00,SE,141,0.0,5.0,46,0.00,,,0.00,0.000000,,2013-04-24 08:11:00,
2013-04-24 01:21:00,39.0,20.0,-100.00,SE,141,0.0,5.0,46,0.00,,,0.00,0.000000,,2013-04-24 08:21:00,
2013-04-24 01:33:00,39.0,20.0,-100.00,SE,141,0.0,5.0,46,0.00,,,0.00,0.000000,,2013-04-24 08:33:00,
2013-04-24 02:01:00,39.0,22.0,-100.00,NNE,14,0.0,4.0,50,0.00,,,0.00,0.000000,,2013-04-24 09:01:00,
2013-04-24 02:11:00,39.0,22.0,-100.00,NNE,14,0.0,4.0,50,0.00,,,0.00,0.000000,,2013-04-24 09:11:00,
2013-04-24 02:21:00,39.0,22.0,-100.00,NNE,14,0.0,4.0,50,0.00,,,0.00,0.000000,,2013-04-24 09:21:00,
2013-04-24 02:32:00,39.0,22.0,-100.00,NNE,14,0.0,4.0,50,0.00,,,0.00,0.000000,,2013-04-24 09:32:00,
2013-04-24 03:02:00,37.0,22.0,-100.00,North,354,0.0,0.0,55,0.00,,,0.00,0.000000,,2013-04-24 10:02:00,
2013-04-24 03:12:00,37.0,22.0,-100.00,North,354,0.0,0.0,55,0.00,,,0.00,0.000000,,2013-04-24 10:12:00,
2013-04-24 03:22:00,37.0,22.0,-100.00,North,354,0.0,0.0,55,0.00,,,0.00,0.000000,,2013-04-24 10:22:00,
2013-04-24 03:32:00,37.0,22.0,-100.00,North,354,0.0,0.0,55,0.00,,,0.00,0.000000,,2013-04-24 10:32:00,
2013-04-24 04:02:00,34.0,18.0,-100.00,North,1,0.0,0.0,52,0.00,,,0.00,0.000000,,2013-04-24 11:02:00,
2013-04-24 04:31:00,34.0,18.0,-100.00,North,1,0.0,0.0,52,0.00,,,0.00,0.000000,,2013-04-24 11:31:00,
2013-04-24 05:02:00,35.0,19.0,-100.00,NNW,337,0.0,0.0,52,0.00,,,0.00,0.000000,,2013-04-24 12:02:00,
2013-04-24 05:11:00,35.0,19.0,-100.00,NNW,337,0.0,0.0,52,0.00,,,0.00,0.000000,,2013-04-24 12:11:00,
2013-04-24 05:22:00,35.0,19.0,-100.00,NNW,337,0.0,0.0,52,0.00,,,0.00,0.000000,,2013-04-24 12:22:00,
2013-04-24 05:31:00,35.0,19.0,-100.00,NNW,337,0.0,0.0,52,0.00,,,0.00,0.000000,,2013-04-24 12:31:00,
2013-04-24 06:01:00,35.0,18.0,-100.00,NNE,14,0.0,0.0,50,0.00,,,0.00,0.000000,,2013-04-24 13:01:00,
2013-04-24 06:12:00,35.0,18.0,-100.00,NNE,14,0.0,0.0,50,0.00,,,0.00,0.000000,,2013-04-24 13:12:00,
2013-04-24 06:22:00,35.0,18.0,-100.00,NNE,14,0.0,0.0,50,0.00,,,0.00,0.000000,,2013-04-24 13:22:00,
2013-04-24 06:31:00,35.0,18.0,-100.00,NNE,14,0.0,0.0,50,0.00,,,0.00,0.000000,,2013-04-24 13:31:00,
2013-04-24 08:01:00,50.0,25.0,-100.00,NNE,22,0.0,2.0,38,-99.99,,,0.00,106.000000,,2013-04-24 15:01:00,
2013-04-24 08:11:00,50.0,25.0,-100.00,NNE,22,0.0,2.0,38,-99.99,,,0.00,106.000000,,2013-04-24 15:11:00,
2013-04-24 08:21:00,50.0,25.0,-100.00,NNE,22,0.0,2.0,38,-99.99,,,0.00,106.000000,,2013-04-24 15:21:00,
2013-04-24 08:32:00,50.0,25.0,-100.00,NNE,22,0.0,2.0,38,-99.99,,,0.00,106.000000,,2013-04-24 15:32:00,
2013-04-24 09:03:00,62.0,19.0,-100.00,East,96,0.0,5.0,19,0.00,,,0.00,451.000000,,2013-04-24 16:03:00,
2013-04-24 10:02:00,60.0,22.0,-100.00,West,280,0.0,7.0,23,-99.99,,,0.00,508.000000,,2013-04-24 17:02:00,
2013-04-24 10:12:00,60.0,22.0,-100.00,West,280,0.0,7.0,23,-99.99,,,0.00,508.000000,,2013-04-24 17:12:00,
2013-04-24 10:22:00,60.0,22.0,-100.00,West,280,0.0,7.0,23,-99.99,,,0.00,508.000000,,2013-04-24 17:22:00,
2013-04-24 10:32:00,60.0,22.0,-100.00,West,280,0.0,7.0,23,-99.99,,,0.00,508.000000,,2013-04-24 17:32:00,
2013-04-24 11:02:00,64.0,22.0,-100.00,North,350,2.0,8.0,20,0.00,,,0.00,707.000000,,2013-04-24 18:02:00,
2013-04-24 11:12:00,64.0,22.0,-100.00,North,350,2.0,8.0,20,0.00,,,0.00,707.000000,,2013-04-24 18:12:00,
2013-04-24 11:21:00,64.0,22.0,-100.00,North,350,2.0,8.0,20,0.00,,,0.00,707.000000,,2013-04-24 18:21:00,
2013-04-24 11:32:00,64.0,22.0,-100.00,North,350,2.0,8.0,20,0.00,,,0.00,707.000000,,2013-04-24 18:32:00,
2013-04-24 12:01:00,66.0,20.0,-100.00,NW,313,3.0,10.0,17,0.00,,,0.00,983.000000,,2013-04-24 19:01:00,
2013-04-24 12:11:00,66.0,20.0,-100.00,NW,313,3.0,10.0,17,0.00,,,0.00,983.000000,,2013-04-24 19:11:00,
2013-04-24 12:21:00,66.0,20.0,-100.00,NW,313,3.0,10.0,17,0.00,,,0.00,983.000000,,2013-04-24 19:21:00,
2013-04-24 12:31:00,66.0,20.0,-100.00,NW,313,3.0,10.0,17,0.00,,,0.00,983.000000,,2013-04-24 19:31:00,
2013-04-24 13:01:00,67.0,18.0,-100.00,North,354,5.0,12.0,15,0.00,,,0.00,1071.000000,,2013-04-24 20:01:00,
2013-04-24 14:02:00,68.0,9.0,-100.00,NNE,29,5.0,18.0,10,-99.99,,,0.00,1247.000000,,2013-04-24 21:02:00,
2013-04-24 15:03:00,68.0,14.0,-100.00,NNW,347,5.0,16.0,12,-99.99,,,0.00,1180.000000,,2013-04-24 22:03:00,
2013-04-24 16:02:00,69.0,25.0,-100.00,South,170,4.0,17.0,19,-99.99,,,0.00,1049.000000,,2013-04-24 23:02:00,
2013-04-24 17:01:00,60.0,23.0,-100.00,ESE,112,2.0,12.0,24,-99.99,,,0.00,417.000000,,2013-04-25 00:01:00,
2013-04-24 17:12:00,60.0,23.0,-100.00,ESE,112,2.0,12.0,24,-99.99,,,0.00,417.000000,,2013-04-25 00:12:00,
2013-04-24 17:22:00,60.0,23.0,-100.00,ESE,112,2.0,12.0,24,-99.99,,,0.00,417.000000,,2013-04-25 00:22:00,
2013-04-24 17:32:00,60.0,23.0,-100.00,ESE,112,2.0,12.0,24,-99.99,,,0.00,417.000000,,2013-04-25 00:32:00,
2013-04-24 18:01:00,56.0,19.0,-100.00,NE,47,6.0,11.0,23,0.00,,,0.00,96.000000,,2013-04-25 01:01:00,
2013-04-24 19:02:00,54.0,17.0,-100.00,ESE,117,3.0,13.0,23,0.00,,,0.00,76.000000,,2013-04-25 02:02:00,
2013-04-24 20:02:00,51.0,17.0,-100.00,ESE,103,4.0,12.0,26,0.00,,,0.00,14.000000,,2013-04-25 03:02:00,
2013-04-24 20:11:00,51.0,17.0,-100.00,ESE,103,4.0,12.0,26,0.00,,,0.00,14.000000,,2013-04-25 03:11:00,
2013-04-24 20:22:00,51.0,17.0,-100.00,ESE,103,4.0,12.0,26,0.00,,,0.00,14.000000,,2013-04-25 03:22:00,
2013-04-24 20:32:00,51.0,17.0,-100.00,ESE,103,4.0,12.0,26,0.00,,,0.00,14.000000,,2013-04-25 03:32:00,
2013-04-24 21:03:00,48.0,14.0,-100.00,ESE,105,3.0,14.0,25,0.00,,,0.00,0.000000,,2013-04-25 04:03:00,
2013-04-24 21:12:00,48.0,14.0,-100.00,ESE,105,3.0,14.0,25,0.00,,,0.00,0.000000,,2013-04-25 04:12:00,
2013-04-24 21:22:00,48.0,14.0,-100.00,ESE,105,3.0,14.0,25,0.00,,,0.00,0.000000,,2013-04-25 04:22:00,
2013-04-24 21:32:00,48.0,14.0,-100.00,ESE,105,3.0,14.0,25,0.00,,,0.00,0.000000,,2013-04-25 04:32:00,
2013-04-24 22:02:00,44.0,12.0,-100.00,SE,126,0.0,8.0,27,0.00,,,0.00,0.000000,,2013-04-25 05:02:00,
2013-04-24 22:12:00,44.0,12.0,-100.00,SE,126,0.0,8.0,27,0.00,,,0.00,0.000000,,2013-04-25 05:12:00,
2013-04-24 22:21:00,44.0,12.0,-100.00,SE,126,0.0,8.0,27,0.00,,,0.00,0.000000,,2013-04-25 05:21:00,
2013-04-24 22:31:00,44.0,12.0,-100.00,SE,126,0.0,8.0,27,0.00,,,0.00,0.000000,,2013-04-25 05:31:00,
2013-04-24 23:01:00,46.0,18.0,-100.00,East,86,0.0,6.0,32,0.00,,,0.00,0.000000,,2013-04-25 06:01:00,
2013-04-24 23:11:00,46.0,18.0,-100.00,East,86,0.0,6.0,32,0.00,,,0.00,0.000000,,2013-04-25 06:11:00,
2013-04-24 23:22:00,46.0,18.0,-100.00,East,86,0.0,6.0,32,0.00,,,0.00,0.000000,,2013-04-25 06:22:00,